Time;durP1;ratioP1;P1;durP2;ratioP2;P2;SDS_P1;SDS_P2;PMS_P1;PMS_P2;Temp;Humidity;BMP_temperature;BMP_pressure;BME280_temperature;BME280_humidity;BME280_pressure;Samples;Min_cycle;Max_cycle;Signal;HPM_P1;HPM_P2
2022/05/22 08:28:26;;;;;;;;;;;;;;;;;;;;;
2022/05/22 11:15:13;;;;;;;5.65;1.70;;;19.40;78.50;;;;;;6138055;23;20026;-86
2022/05/22 11:17:39;;;;;;;6.00;2.28;;;19.50;79.40;;;;;;6127530;23;20036;-86
2022/05/22 11:20:21;;;;;;;5.32;2.10;;;19.50;79.10;;;;;;6102150;23;20340;-86
2022/05/22 11:23:10;;;;;;;4.43;1.95;;;19.60;78.80;;;;;;6127007;23;20002;-86
2022/05/22 11:25:36;;;;;;;3.88;1.80;;;19.70;79.20;;;;;;6128082;23;19998;-86
2022/05/22 11:28:23;;;;;;;3.63;1.75;;;19.70;79.50;;;;;;6126494;23;20104;-84
2022/05/22 11:31:08;;;;;;;4.93;1.90;;;19.80;79.60;;;;;;6126605;23;20002;-86
2022/05/22 11:33:46;;;;;;;3.55;1.80;;;19.90;79.30;;;;;;6128116;23;20008;-87
2022/05/22 11:36:59;;;;;;;4.03;2.08;;;20.00;79.20;;;;;;6127581;23;20006;-87
2022/05/22 11:39:39;;;;;;;4.55;2.10;;;20.00;78.20;;;;;;6039005;23;20034;-87
2022/05/22 11:42:23;;;;;;;3.58;1.80;;;20.10;78.60;;;;;;6127826;23;20002;-87
2022/05/22 11:45:21;;;;;;;6.85;2.58;;;20.10;79.00;;;;;;6127787;23;20421;-88
2022/05/22 11:48:11;;;;;;;5.07;2.30;;;20.20;79.10;;;;;;6126476;23;20010;-87
2022/05/22 11:51:06;;;;;;;5.55;2.38;;;20.20;79.50;;;;;;6126503;23;20006;-88
2022/05/22 11:53:42;;;;;;;4.25;2.38;;;20.30;79.60;;;;;;6131608;23;20005;-95
2022/05/22 11:56:41;;;;;;;3.97;2.35;;;20.40;79.40;;;;;;6136386;23;20006;-95
2022/05/22 11:59:32;;;;;;;;;;;;;;;;;;;;;
2022/05/22 12:03:03;;;;;;;;;;;;;;;;;;;;;
2022/05/22 12:06:05;;;;;;;5.75;2.72;;;20.50;78.80;;;;;;6135666;23;20030;-92
2022/05/22 12:08:44;;;;;;;;;;;;;;;;;;;;;
2022/05/22 12:11:26;;;;;;;5.38;2.20;;;20.50;78.90;;;;;;6154735;23;20002;-93
2022/05/22 12:14:34;;;;;;;;;;;;;;;;;;;;;
2022/05/22 12:17:13;;;;;;;5.40;2.50;;;20.70;77.20;;;;;;6153160;23;20009;-93
2022/05/22 12:20:18;;;;;;;;;;;;;;;;;;;;;
2022/05/22 12:23:10;;;;;;;4.78;3.00;;;20.70;76.80;;;;;;6131935;23;20032;-92
2022/05/22 12:26:22;;;;;;;5.45;3.22;;;20.70;75.90;;;;;;6128185;23;20087;-92
2022/05/22 12:29:13;;;;;;;;;;;;;;;;;;;;;
2022/05/22 12:32:14;;;;;;;5.07;2.70;;;20.70;75.80;;;;;;6130433;23;20107;-92
2022/05/22 12:35:19;;;;;;;;;;;;;;;;;;;;;
2022/05/22 12:38:43;;;;;;;6.43;2.67;;;20.80;76.20;;;;;;6130024;23;20090;-93
2022/05/22 12:41:35;;;;;;;6.43;3.13;;;20.80;76.00;;;;;;6134144;23;20002;-93
2022/05/22 12:44:49;;;;;;;3.78;2.55;;;20.90;75.40;;;;;;6130927;23;20009;-93
2022/05/22 12:48:05;;;;;;;4.45;2.22;;;20.90;75.20;;;;;;6130591;23;20040;-92
2022/05/22 12:51:31;;;;;;;;;;;;;;;;;;;;;
2022/05/22 12:54:37;;;;;;;;;;;;;;;;;;;;;
2022/05/22 13:01:09;;;;;;;;;;;;;;;;;;;;;
2022/05/22 13:05:01;;;;;;;;;;;;;;;;;;;;;
2022/05/22 13:12:37;;;;;;;5.78;2.90;;;21.10;72.40;;;;;;6053364;23;20030;-94
2022/05/22 13:37:10;;;;;;;4.63;2.65;;;21.30;71.50;;;;;;6137884;23;21794;-95
2022/05/22 13:40:11;;;;;;;3.22;2.58;;;21.40;71.30;;;;;;6164573;23;20022;-93
2022/05/22 13:43:05;;;;;;;6.32;2.70;;;21.40;70.40;;;;;;6129099;23;20490;-89
2022/05/22 13:46:02;;;;;;;5.07;2.92;;;21.40;70.30;;;;;;6156958;23;20002;-90
2022/05/22 13:49:20;;;;;;;4.68;2.13;;;21.40;70.30;;;;;;6156730;23;20014;-90
2022/05/22 13:52:42;;;;;;;2.85;1.80;;;21.50;70.90;;;;;;6157739;23;20360;-89
2022/05/22 13:55:24;;;;;;;2.47;1.80;;;21.50;70.60;;;;;;6158392;23;20009;-89
2022/05/22 13:58:04;;;;;;;3.47;1.85;;;21.50;70.60;;;;;;6158736;23;20065;-88
2022/05/22 14:00:37;;;;;;;4.30;2.33;;;21.50;70.90;;;;;;6158461;23;20052;-91
2022/05/22 14:03:18;;;;;;;4.90;3.10;;;21.50;70.90;;;;;;6159335;23;20002;-90
2022/05/22 14:06:04;;;;;;;4.88;2.90;;;21.50;71.10;;;;;;6159961;23;20015;-88
2022/05/22 14:08:41;;;;;;;6.10;2.97;;;21.60;71.10;;;;;;6167692;23;19982;-89
2022/05/22 14:11:14;;;;;;;5.88;3.10;;;21.60;71.10;;;;;;6181877;23;20008;-89
2022/05/22 14:14:26;;;;;;;4.70;2.42;;;21.70;70.70;;;;;;6181520;23;19989;-90
2022/05/22 14:17:01;;;;;;;5.57;3.25;;;21.70;71.10;;;;;;6155976;23;20009;-89
2022/05/22 14:23:07;;;;;;;4.13;2.17;;;21.80;69.90;;;;;;6164188;23;20010;-90
2022/05/22 14:25:47;;;;;;;3.83;2.35;;;21.80;70.50;;;;;;6156532;23;20032;-89
2022/05/22 14:28:38;;;;;;;4.10;2.70;;;21.80;70.80;;;;;;6156865;23;20360;-89
2022/05/22 14:31:20;;;;;;;4.75;2.10;;;21.90;70.60;;;;;;6155709;23;20331;-89
2022/05/22 14:34:40;;;;;;;4.25;2.15;;;21.90;70.60;;;;;;6155540;23;20491;-89
2022/05/22 14:37:26;;;;;;;4.88;2.00;;;21.90;70.90;;;;;;6153464;23;20100;-90
2022/05/22 14:39:56;;;;;;;5.00;2.40;;;22.00;70.80;;;;;;6154392;23;20018;-89
2022/05/22 14:42:43;;;;;;;5.28;2.30;;;22.00;70.70;;;;;;6155598;23;20002;-90
2022/05/22 14:45:40;;;;;;;3.50;2.45;;;22.10;70.70;;;;;;6155282;23;20006;-90
2022/05/22 14:51:13;;;;;;;3.93;2.63;;;22.20;70.90;;;;;;6135646;23;20037;-88
2022/05/22 14:53:45;;;;;;;5.75;3.00;;;22.20;70.80;;;;;;6155628;23;20005;-90
2022/05/22 14:56:22;;;;;;;6.03;3.22;;;22.20;70.90;;;;;;6179915;23;20012;-90
2022/05/22 14:58:57;;;;;;;5.50;2.78;;;22.30;70.40;;;;;;6155351;23;20002;-89
2022/05/22 15:01:39;;;;;;;3.42;2.67;;;22.30;70.40;;;;;;6156170;23;20013;-90
2022/05/22 15:04:11;;;;;;;3.90;2.33;;;22.30;70.60;;;;;;6155748;23;20009;-90
2022/05/22 15:07:05;;;;;;;5.18;2.60;;;22.30;70.80;;;;;;6155789;23;20006;-90
2022/05/22 15:09:45;;;;;;;5.05;2.78;;;22.40;70.60;;;;;;6155375;23;19997;-89
2022/05/22 15:12:30;;;;;;;4.72;2.40;;;22.40;70.60;;;;;;6157922;23;20005;-89
2022/05/22 15:15:05;;;;;;;4.75;2.40;;;22.40;70.70;;;;;;6156529;23;20017;-90
2022/05/22 15:17:48;;;;;;;;;;;;;;;;;;;;;
2022/05/22 15:20:28;;;;;;;5.70;2.67;;;22.50;70.20;;;;;;6158414;23;20076;-90
2022/05/22 15:25:55;;;;;;;4.82;2.72;;;22.50;69.80;;;;;;6178501;23;20455;-90
2022/05/22 15:32:26;;;;;;;4.63;2.50;;;22.50;69.90;;;;;;6142799;23;20412;-87
2022/05/22 15:35:00;;;;;;;4.90;2.50;;;22.50;69.60;;;;;;6152117;23;20006;-89
2022/05/22 15:37:26;;;;;;;5.18;2.75;;;22.50;69.80;;;;;;6156884;23;20005;-89
2022/05/22 15:39:51;;;;;;;3.65;2.55;;;22.50;69.70;;;;;;6156450;23;20014;-90
2022/05/22 15:42:22;;;;;;;4.38;2.40;;;22.50;69.10;;;;;;6156996;23;20076;-89
2022/05/22 15:44:51;;;;;;;4.55;2.25;;;22.60;69.10;;;;;;6156292;23;20013;-89
2022/05/22 15:47:23;;;;;;;3.67;2.25;;;22.60;69.20;;;;;;6157524;23;20020;-88
2022/05/22 15:52:49;;;;;;;3.58;2.20;;;22.60;69.40;;;;;;6157440;23;20068;-88
2022/05/22 15:55:17;;;;;;;4.72;2.30;;;22.60;69.40;;;;;;6156636;23;20029;-88
2022/05/22 15:57:43;;;;;;;3.78;2.30;;;22.50;69.10;;;;;;6156195;23;20092;-88
2022/05/22 16:00:11;;;;;;;4.10;3.03;;;22.50;69.20;;;;;;6131579;23;20006;-88
2022/05/22 16:02:39;;;;;;;5.30;2.95;;;22.50;68.70;;;;;;6156776;23;20033;-87
2022/05/22 16:05:21;;;;;;;;;;;;;;;;;;;;;
2022/05/22 16:07:51;;;;;;;4.47;2.33;;;22.40;68.70;;;;;;6158590;23;20080;-88
2022/05/22 16:10:20;;;;;;;4.40;2.40;;;22.50;68.90;;;;;;6157328;23;20435;-88
2022/05/22 16:12:48;;;;;;;3.88;2.22;;;22.40;68.70;;;;;;6158906;23;20237;-86
2022/05/22 16:15:16;;;;;;;5.97;2.50;;;22.50;68.80;;;;;;6181820;23;21208;-87
2022/05/22 16:18:04;;;;;;;5.32;2.55;;;22.50;68.80;;;;;;6183761;23;20049;-86
2022/05/22 16:20:30;;;;;;;4.78;2.40;;;22.50;68.10;;;;;;6184582;23;19997;-86
2022/05/22 16:23:01;;;;;;;4.53;2.03;;;22.40;67.80;;;;;;6183064;23;20002;-88
2022/05/22 16:25:27;;;;;;;4.93;2.20;;;22.40;68.10;;;;;;6182922;23;19990;-87
2022/05/22 16:27:53;;;;;;;4.43;2.10;;;22.40;68.10;;;;;;6163664;23;20005;-87
2022/05/22 16:30:22;;;;;;;4.10;1.98;;;22.40;68.10;;;;;;6156664;23;20133;-86
2022/05/22 16:32:48;;;;;;;3.22;1.95;;;22.50;68.00;;;;;;6155611;23;20013;-86
2022/05/22 16:35:24;;;;;;;6.22;2.20;;;22.50;68.10;;;;;;6154573;23;20036;-87
2022/05/22 16:37:51;;;;;;;4.65;2.05;;;22.40;68.00;;;;;;6154906;23;20033;-87
2022/05/22 16:40:19;;;;;;;4.75;2.03;;;22.40;68.10;;;;;;6155506;23;19997;-86
2022/05/22 16:42:57;;;;;;;2.65;1.80;;;22.30;67.80;;;;;;6156814;23;20001;-87
2022/05/22 16:45:29;;;;;;;5.05;2.22;;;22.30;68.00;;;;;;6155493;23;20005;-88
2022/05/22 16:53:38;;;;;;;6.20;2.28;;;22.20;67.60;;;;;;6177247;23;20030;-88
2022/05/22 16:56:13;;;;;;;3.50;1.87;;;22.20;67.90;;;;;;6155798;23;20431;-90
2022/05/22 16:59:29;;;;;;;;;;;;;;;;;;;;;
